KRKD/RKD METAR and TAF weather

Enter ICAO airport designator
Station Type Date Time Source
KRKD METAR 2021/01/16 01:56 UTC NOAA

KRKD 160156Z AUTO 04004KT 10SM CLR 02/M01 A3014 RMK AO2 SLP207 T00171006 FZRANO


Station Type Date Time Source
KRKD Decoded METAR 2021/01/16 01:56 UTC NOAA

Rockland, Knox County Regional Airport, ME, United States (KRKD) 44-04N 069-06W
Jan 15, 2021 - 08:56 PM EST / 2021.01.16 0156 UTC
Wind: from the NE (040 degrees) at 5 MPH (4 KT):0
Visibility: 10 mile(s):0
Sky conditions: clear
Temperature: 35.1 F (1.7 C)
Dew Point: 30.9 F (-0.6 C)
Relative Humidity: 84%
Pressure (altimeter): 30.14 in. Hg (1020 hPa)
ob: KRKD 160156Z AUTO 04004KT 10SM CLR 02/M01 A3014 RMK AO2 SLP207 T00171006 FZRANO
cycle: 2

Station Type Date Time Source
KRKD TAF 2021/01/15 18:45 UTC NOAA

TAF KRKD 151742Z 1518/1618 04005KT P6SM BKN050
FM160300 08004KT P6SM BKN025
FM161000 09010G20KT P6SM OVC015
FM161500 10015G25KT 3SM -RA BR OVC003

Example: see airport list